Pagina principale
METAR-TAF:

METAR-TAF

Aeroporti :

Madinat al-Kuwait, Kuwait

Aeroporto Internazionale del Kuwait

latitudine: 29-13N, longitudine: 047-59E, altezza: 55 m

Osservazione

Il bollettino è stato emesso 49 minuti fa, alle 13:00 UTC
Vento 4 kt da est/nord-est
Temperature 17°C
Umidità 88%
Pressione 1009 hPa
Visibilità: 4000 m
Nubi sparse ad un'altezza di 4000 ft
Nuvoloso ad un'altezza di 8000 ft
pioggia debole

METAR: OKBK 241300Z 06004KT 4000 -RA SCT040 BKN080 17/15 Q1009 NOSIG

Ora: 16:49 (13:49 UTC)

Previsione

Il bollettino è stato emesso 27 ore e 4 minuti fa, alle 10:45 UTC
Previsione valida dal 23 alle 12 UTC al 24 alle 18 UTC
Vento 8 kt da sud-est con raffiche fino a 18 kt
Visibilità: 7000 m
Poco nuvoloso ad un'altezza di 4000 ft
Nuvoloso ad un'altezza di 10000 ft
Temporaneamente
dal 23 alle 12 UTC al 23 alle 21 UTC
Vento 3 kt da direzioni variabili
Visibilità: 4000 m
pioggia

TAF: OKBK 231045Z 2312/2418 14008G18KT 7000 FEW040 BKN100 TEMPO 2312/2321 VRB03KT 4000 RA

Osservazioni e previsioni meteorologiche di più di 4000 aeroporti (messaggi METAR e TAF).

Le stazioni disponibili sono rappresentate dai dischi gialli e rossi sulla carta.

Puntare il mouse per vedere il nome della stazione.

Clicca sopra per visualizzare le osservazioni e previsioni meteorologiche.

Per cambiare la mappa : fare clic sui pulsanti verdi con una croce nera per ingrandire, il pulsante verde con un trattino per diminuire, o sulla freccia verde per le mappe adiacenti.


METAR-TAF: